sensor_id;sensor_type;location;lat;lon;timestamp;P1;durP1;ratioP1;P2;durP2;ratioP2
23432;SDS011;41331;45.412;10.992;2023-05-15T00:00:17;16.88;;;13.15;;
23432;SDS011;41331;45.412;10.992;2023-05-15T00:02:45;15.82;;;12.70;;
23432;SDS011;41331;45.412;10.992;2023-05-15T00:05:12;18.25;;;12.57;;
23432;SDS011;41331;45.412;10.992;2023-05-15T00:07:40;16.92;;;12.98;;
23432;SDS011;41331;45.412;10.992;2023-05-15T00:10:08;21.08;;;13.80;;
23432;SDS011;41331;45.412;10.992;2023-05-15T00:12:37;18.48;;;13.80;;
23432;SDS011;41331;45.412;10.992;2023-05-15T00:15:05;17.20;;;13.95;;
23432;SDS011;41331;45.412;10.992;2023-05-15T00:17:32;16.85;;;13.48;;
23432;SDS011;41331;45.412;10.992;2023-05-15T00:20:00;19.83;;;13.93;;
23432;SDS011;41331;45.412;10.992;2023-05-15T00:22:28;17.80;;;13.75;;
23432;SDS011;41331;45.412;10.992;2023-05-15T00:24:55;16.80;;;12.43;;
23432;SDS011;41331;45.412;10.992;2023-05-15T00:27:23;18.73;;;14.27;;
23432;SDS011;41331;45.412;10.992;2023-05-15T00:29:52;18.90;;;13.25;;
23432;SDS011;41331;45.412;10.992;2023-05-15T00:32:20;20.25;;;13.07;;
23432;SDS011;41331;45.412;10.992;2023-05-15T00:34:47;17.58;;;13.40;;
23432;SDS011;41331;45.412;10.992;2023-05-15T00:37:15;16.73;;;12.55;;
23432;SDS011;41331;45.412;10.992;2023-05-15T00:39:42;16.65;;;12.98;;
23432;SDS011;41331;45.412;10.992;2023-05-15T00:42:09;20.05;;;12.88;;
23432;SDS011;41331;45.412;10.992;2023-05-15T00:44:38;21.35;;;13.05;;
23432;SDS011;41331;45.412;10.992;2023-05-15T00:47:07;17.35;;;13.10;;
23432;SDS011;41331;45.412;10.992;2023-05-15T00:49:37;16.00;;;12.32;;
23432;SDS011;41331;45.412;10.992;2023-05-15T00:52:05;17.85;;;12.93;;
23432;SDS011;41331;45.412;10.992;2023-05-15T00:54:35;17.58;;;12.10;;
23432;SDS011;41331;45.412;10.992;2023-05-15T00:57:03;19.67;;;12.77;;
23432;SDS011;41331;45.412;10.992;2023-05-15T00:59:32;17.65;;;13.18;;
23432;SDS011;41331;45.412;10.992;2023-05-15T01:01:59;14.65;;;11.65;;
23432;SDS011;41331;45.412;10.992;2023-05-15T01:04:27;19.13;;;12.85;;
23432;SDS011;41331;45.412;10.992;2023-05-15T01:06:55;18.08;;;13.25;;
23432;SDS011;41331;45.412;10.992;2023-05-15T01:09:22;16.65;;;12.23;;
23432;SDS011;41331;45.412;10.992;2023-05-15T01:11:52;18.17;;;12.48;;
23432;SDS011;41331;45.412;10.992;2023-05-15T01:14:20;17.05;;;12.60;;
23432;SDS011;41331;45.412;10.992;2023-05-15T01:16:48;16.88;;;12.65;;
23432;SDS011;41331;45.412;10.992;2023-05-15T01:19:15;18.58;;;13.07;;
23432;SDS011;41331;45.412;10.992;2023-05-15T01:27:42;15.65;;;12.23;;
23432;SDS011;41331;45.412;10.992;2023-05-15T01:30:15;17.65;;;12.65;;
23432;SDS011;41331;45.412;10.992;2023-05-15T01:35:20;17.92;;;12.60;;
23432;SDS011;41331;45.412;10.992;2023-05-15T01:38:07;15.48;;;12.32;;
23432;SDS011;41331;45.412;10.992;2023-05-15T01:40:59;17.05;;;12.48;;
23432;SDS011;41331;45.412;10.992;2023-05-15T01:43:34;18.85;;;13.15;;
23432;SDS011;41331;45.412;10.992;2023-05-15T01:46:07;20.35;;;12.75;;
23432;SDS011;41331;45.412;10.992;2023-05-15T01:48:39;17.70;;;12.38;;
23432;SDS011;41331;45.412;10.992;2023-05-15T01:51:07;17.90;;;11.60;;
23432;SDS011;41331;45.412;10.992;2023-05-15T01:53:40;16.65;;;12.80;;
23432;SDS011;41331;45.412;10.992;2023-05-15T01:56:11;19.08;;;13.02;;
23432;SDS011;41331;45.412;10.992;2023-05-15T01:58:41;17.00;;;13.07;;
23432;SDS011;41331;45.412;10.992;2023-05-15T02:01:10;18.63;;;12.65;;
23432;SDS011;41331;45.412;10.992;2023-05-15T02:03:39;14.90;;;11.55;;
23432;SDS011;41331;45.412;10.992;2023-05-15T02:06:08;18.15;;;13.20;;
23432;SDS011;41331;45.412;10.992;2023-05-15T02:08:37;19.73;;;14.27;;
23432;SDS011;41331;45.412;10.992;2023-05-15T02:11:06;21.50;;;14.20;;
23432;SDS011;41331;45.412;10.992;2023-05-15T02:13:34;18.60;;;14.32;;
23432;SDS011;41331;45.412;10.992;2023-05-15T02:16:03;17.33;;;14.35;;
23432;SDS011;41331;45.412;10.992;2023-05-15T02:18:31;20.58;;;13.50;;
23432;SDS011;41331;45.412;10.992;2023-05-15T02:21:00;22.17;;;13.50;;
23432;SDS011;41331;45.412;10.992;2023-05-15T02:23:29;19.65;;;14.85;;
23432;SDS011;41331;45.412;10.992;2023-05-15T02:28:33;19.90;;;15.15;;
23432;SDS011;41331;45.412;10.992;2023-05-15T02:31:13;20.33;;;14.48;;
23432;SDS011;41331;45.412;10.992;2023-05-15T02:37:06;17.70;;;13.65;;
23432;SDS011;41331;45.412;10.992;2023-05-15T02:39:41;16.67;;;12.15;;
23432;SDS011;41331;45.412;10.992;2023-05-15T02:42:12;15.50;;;11.68;;
23432;SDS011;41331;45.412;10.992;2023-05-15T02:44:44;15.55;;;10.95;;
23432;SDS011;41331;45.412;10.992;2023-05-15T02:47:12;18.98;;;11.07;;
23432;SDS011;41331;45.412;10.992;2023-05-15T02:49:41;14.57;;;10.90;;
23432;SDS011;41331;45.412;10.992;2023-05-15T02:52:08;15.20;;;10.70;;
23432;SDS011;41331;45.412;10.992;2023-05-15T02:54:35;14.98;;;10.35;;
23432;SDS011;41331;45.412;10.992;2023-05-15T02:57:03;13.68;;;11.07;;
23432;SDS011;41331;45.412;10.992;2023-05-15T02:59:30;14.13;;;10.25;;
23432;SDS011;41331;45.412;10.992;2023-05-15T03:01:58;14.15;;;10.55;;
23432;SDS011;41331;45.412;10.992;2023-05-15T03:04:25;15.05;;;10.95;;
23432;SDS011;41331;45.412;10.992;2023-05-15T03:06:53;14.32;;;10.48;;
23432;SDS011;41331;45.412;10.992;2023-05-15T03:09:20;16.42;;;10.20;;
23432;SDS011;41331;45.412;10.992;2023-05-15T03:11:47;14.70;;;10.88;;
23432;SDS011;41331;45.412;10.992;2023-05-15T03:14:15;17.27;;;11.48;;
23432;SDS011;41331;45.412;10.992;2023-05-15T03:16:43;16.00;;;11.38;;
23432;SDS011;41331;45.412;10.992;2023-05-15T03:19:11;16.40;;;11.30;;
23432;SDS011;41331;45.412;10.992;2023-05-15T03:21:38;17.20;;;12.07;;
23432;SDS011;41331;45.412;10.992;2023-05-15T03:24:06;16.58;;;11.05;;
23432;SDS011;41331;45.412;10.992;2023-05-15T03:26:33;20.02;;;9.88;;
23432;SDS011;41331;45.412;10.992;2023-05-15T03:29:01;12.70;;;8.52;;
23432;SDS011;41331;45.412;10.992;2023-05-15T03:31:28;9.13;;;6.00;;
23432;SDS011;41331;45.412;10.992;2023-05-15T03:33:58;9.13;;;4.15;;
23432;SDS011;41331;45.412;10.992;2023-05-15T03:36:25;6.25;;;3.92;;
23432;SDS011;41331;45.412;10.992;2023-05-15T03:38:53;5.75;;;3.45;;
23432;SDS011;41331;45.412;10.992;2023-05-15T03:41:20;3.97;;;3.10;;
23432;SDS011;41331;45.412;10.992;2023-05-15T03:43:48;3.92;;;2.80;;
23432;SDS011;41331;45.412;10.992;2023-05-15T03:46:17;5.07;;;2.28;;
23432;SDS011;41331;45.412;10.992;2023-05-15T03:48:45;3.38;;;2.10;;
23432;SDS011;41331;45.412;10.992;2023-05-15T03:51:12;6.65;;;2.05;;
23432;SDS011;41331;45.412;10.992;2023-05-15T03:53:39;3.20;;;2.13;;
23432;SDS011;41331;45.412;10.992;2023-05-15T03:56:07;4.05;;;2.70;;
23432;SDS011;41331;45.412;10.992;2023-05-15T03:58:34;5.55;;;3.40;;
23432;SDS011;41331;45.412;10.992;2023-05-15T04:01:02;7.15;;;4.18;;
23432;SDS011;41331;45.412;10.992;2023-05-15T04:03:29;7.70;;;4.13;;
23432;SDS011;41331;45.412;10.992;2023-05-15T04:05:59;4.85;;;3.50;;
23432;SDS011;41331;45.412;10.992;2023-05-15T04:08:26;6.38;;;3.35;;
23432;SDS011;41331;45.412;10.992;2023-05-15T04:10:54;7.03;;;3.00;;
23432;SDS011;41331;45.412;10.992;2023-05-15T04:13:21;5.32;;;2.60;;
23432;SDS011;41331;45.412;10.992;2023-05-15T04:15:48;3.90;;;2.42;;
23432;SDS011;41331;45.412;10.992;2023-05-15T04:18:16;3.58;;;1.90;;
23432;SDS011;41331;45.412;10.992;2023-05-15T04:20:44;6.43;;;2.22;;
23432;SDS011;41331;45.412;10.992;2023-05-15T04:23:11;5.53;;;2.20;;
23432;SDS011;41331;45.412;10.992;2023-05-15T04:25:38;4.45;;;2.58;;
23432;SDS011;41331;45.412;10.992;2023-05-15T04:28:08;7.40;;;3.53;;
23432;SDS011;41331;45.412;10.992;2023-05-15T04:30:36;9.02;;;5.35;;
23432;SDS011;41331;45.412;10.992;2023-05-15T04:33:03;7.88;;;4.70;;
23432;SDS011;41331;45.412;10.992;2023-05-15T04:35:31;8.07;;;4.40;;
23432;SDS011;41331;45.412;10.992;2023-05-15T04:37:58;10.32;;;4.82;;
23432;SDS011;41331;45.412;10.992;2023-05-15T04:40:25;7.00;;;4.88;;
23432;SDS011;41331;45.412;10.992;2023-05-15T04:42:53;8.35;;;4.45;;
23432;SDS011;41331;45.412;10.992;2023-05-15T04:45:20;5.10;;;3.40;;
23432;SDS011;41331;45.412;10.992;2023-05-15T04:47:51;5.50;;;3.13;;
23432;SDS011;41331;45.412;10.992;2023-05-15T04:50:18;6.18;;;3.75;;
23432;SDS011;41331;45.412;10.992;2023-05-15T04:52:45;8.00;;;3.67;;
23432;SDS011;41331;45.412;10.992;2023-05-15T04:55:13;5.72;;;3.72;;
23432;SDS011;41331;45.412;10.992;2023-05-15T04:57:41;5.80;;;3.60;;
23432;SDS011;41331;45.412;10.992;2023-05-15T05:00:08;5.72;;;3.50;;
23432;SDS011;41331;45.412;10.992;2023-05-15T05:02:38;6.00;;;3.53;;
23432;SDS011;41331;45.412;10.992;2023-05-15T05:05:06;6.60;;;4.28;;
23432;SDS011;41331;45.412;10.992;2023-05-15T05:07:34;6.53;;;4.38;;
23432;SDS011;41331;45.412;10.992;2023-05-15T05:10:02;6.43;;;4.97;;
23432;SDS011;41331;45.412;10.992;2023-05-15T05:12:31;7.13;;;4.53;;
23432;SDS011;41331;45.412;10.992;2023-05-15T05:14:58;9.48;;;4.80;;
23432;SDS011;41331;45.412;10.992;2023-05-15T05:17:26;8.35;;;4.35;;
23432;SDS011;41331;45.412;10.992;2023-05-15T05:19:54;6.22;;;4.40;;
23432;SDS011;41331;45.412;10.992;2023-05-15T05:22:21;7.18;;;4.72;;
23432;SDS011;41331;45.412;10.992;2023-05-15T05:24:49;8.43;;;5.10;;
23432;SDS011;41331;45.412;10.992;2023-05-15T05:27:17;7.80;;;5.50;;
23432;SDS011;41331;45.412;10.992;2023-05-15T05:29:44;8.10;;;5.47;;
23432;SDS011;41331;45.412;10.992;2023-05-15T05:32:12;8.85;;;5.55;;
23432;SDS011;41331;45.412;10.992;2023-05-15T05:34:39;8.48;;;5.88;;
23432;SDS011;41331;45.412;10.992;2023-05-15T05:37:06;9.10;;;6.40;;
23432;SDS011;41331;45.412;10.992;2023-05-15T05:39:34;9.63;;;6.32;;
23432;SDS011;41331;45.412;10.992;2023-05-15T05:42:01;10.65;;;7.45;;
23432;SDS011;41331;45.412;10.992;2023-05-15T05:44:29;8.43;;;6.50;;
23432;SDS011;41331;45.412;10.992;2023-05-15T05:46:56;8.25;;;6.10;;
23432;SDS011;41331;45.412;10.992;2023-05-15T05:49:25;9.18;;;6.80;;
23432;SDS011;41331;45.412;10.992;2023-05-15T05:51:52;8.63;;;6.53;;
23432;SDS011;41331;45.412;10.992;2023-05-15T05:54:20;6.15;;;4.78;;
23432;SDS011;41331;45.412;10.992;2023-05-15T05:56:47;6.22;;;4.65;;
23432;SDS011;41331;45.412;10.992;2023-05-15T05:59:15;6.85;;;4.50;;
23432;SDS011;41331;45.412;10.992;2023-05-15T06:01:42;6.25;;;4.45;;
23432;SDS011;41331;45.412;10.992;2023-05-15T06:04:10;7.47;;;4.07;;
23432;SDS011;41331;45.412;10.992;2023-05-15T06:06:40;7.70;;;4.50;;
23432;SDS011;41331;45.412;10.992;2023-05-15T06:09:07;6.25;;;4.13;;
23432;SDS011;41331;45.412;10.992;2023-05-15T06:11:35;9.18;;;4.28;;
23432;SDS011;41331;45.412;10.992;2023-05-15T06:14:03;6.05;;;4.40;;
23432;SDS011;41331;45.412;10.992;2023-05-15T06:16:30;6.95;;;3.95;;
23432;SDS011;41331;45.412;10.992;2023-05-15T06:18:58;8.15;;;4.57;;
23432;SDS011;41331;45.412;10.992;2023-05-15T06:21:25;5.93;;;4.38;;
23432;SDS011;41331;45.412;10.992;2023-05-15T06:23:53;8.30;;;4.60;;
23432;SDS011;41331;45.412;10.992;2023-05-15T06:26:20;8.20;;;4.45;;
23432;SDS011;41331;45.412;10.992;2023-05-15T06:28:48;6.40;;;4.18;;
23432;SDS011;41331;45.412;10.992;2023-05-15T06:31:15;4.82;;;3.47;;
23432;SDS011;41331;45.412;10.992;2023-05-15T06:33:43;6.82;;;4.03;;
23432;SDS011;41331;45.412;10.992;2023-05-15T06:36:11;6.30;;;4.18;;
23432;SDS011;41331;45.412;10.992;2023-05-15T06:38:38;7.80;;;4.53;;
23432;SDS011;41331;45.412;10.992;2023-05-15T06:41:06;7.38;;;4.82;;
23432;SDS011;41331;45.412;10.992;2023-05-15T06:43:34;7.20;;;4.40;;
23432;SDS011;41331;45.412;10.992;2023-05-15T06:46:02;6.55;;;4.32;;
23432;SDS011;41331;45.412;10.992;2023-05-15T06:48:30;5.80;;;4.22;;
23432;SDS011;41331;45.412;10.992;2023-05-15T06:50:57;6.43;;;4.72;;
23432;SDS011;41331;45.412;10.992;2023-05-15T06:53:24;6.28;;;4.65;;
23432;SDS011;41331;45.412;10.992;2023-05-15T06:55:52;7.43;;;5.10;;
23432;SDS011;41331;45.412;10.992;2023-05-15T06:58:19;7.05;;;5.22;;
23432;SDS011;41331;45.412;10.992;2023-05-15T07:00:47;9.68;;;6.22;;
23432;SDS011;41331;45.412;10.992;2023-05-15T07:03:14;8.88;;;6.10;;
23432;SDS011;41331;45.412;10.992;2023-05-15T07:05:43;7.32;;;6.13;;
23432;SDS011;41331;45.412;10.992;2023-05-15T07:08:11;9.18;;;6.10;;
23432;SDS011;41331;45.412;10.992;2023-05-15T07:10:38;12.80;;;7.18;;
23432;SDS011;41331;45.412;10.992;2023-05-15T07:13:05;11.48;;;7.57;;
23432;SDS011;41331;45.412;10.992;2023-05-15T07:15:33;12.15;;;8.93;;
23432;SDS011;41331;45.412;10.992;2023-05-15T07:18:00;17.10;;;10.70;;
23432;SDS011;41331;45.412;10.992;2023-05-15T07:20:28;12.98;;;9.50;;
23432;SDS011;41331;45.412;10.992;2023-05-15T07:22:59;16.02;;;10.07;;
23432;SDS011;41331;45.412;10.992;2023-05-15T07:25:26;13.07;;;10.02;;
23432;SDS011;41331;45.412;10.992;2023-05-15T07:27:54;14.13;;;10.93;;
23432;SDS011;41331;45.412;10.992;2023-05-15T07:30:22;12.23;;;9.90;;
23432;SDS011;41331;45.412;10.992;2023-05-15T07:32:50;14.10;;;9.98;;
23432;SDS011;41331;45.412;10.992;2023-05-15T07:35:17;13.80;;;9.57;;
23432;SDS011;41331;45.412;10.992;2023-05-15T07:37:45;19.60;;;11.15;;
23432;SDS011;41331;45.412;10.992;2023-05-15T07:40:12;11.90;;;9.15;;
23432;SDS011;41331;45.412;10.992;2023-05-15T07:42:42;12.27;;;9.93;;
23432;SDS011;41331;45.412;10.992;2023-05-15T07:45:11;10.18;;;8.40;;
23432;SDS011;41331;45.412;10.992;2023-05-15T07:47:43;10.82;;;7.95;;
23432;SDS011;41331;45.412;10.992;2023-05-15T07:50:12;9.68;;;7.38;;
23432;SDS011;41331;45.412;10.992;2023-05-15T07:52:40;10.40;;;7.68;;
23432;SDS011;41331;45.412;10.992;2023-05-15T07:55:10;8.77;;;6.68;;
23432;SDS011;41331;45.412;10.992;2023-05-15T07:57:38;10.30;;;7.90;;
23432;SDS011;41331;45.412;10.992;2023-05-15T08:00:07;9.65;;;7.20;;
23432;SDS011;41331;45.412;10.992;2023-05-15T08:02:40;10.48;;;8.23;;
23432;SDS011;41331;45.412;10.992;2023-05-15T08:05:08;7.13;;;5.63;;
23432;SDS011;41331;45.412;10.992;2023-05-15T08:07:36;10.05;;;6.90;;
23432;SDS011;41331;45.412;10.992;2023-05-15T08:10:03;10.98;;;7.18;;
23432;SDS011;41331;45.412;10.992;2023-05-15T08:12:32;9.07;;;5.68;;
23432;SDS011;41331;45.412;10.992;2023-05-15T08:15:00;7.85;;;5.95;;
23432;SDS011;41331;45.412;10.992;2023-05-15T08:17:27;10.68;;;6.18;;
23432;SDS011;41331;45.412;10.992;2023-05-15T08:19:56;10.25;;;6.00;;
23432;SDS011;41331;45.412;10.992;2023-05-15T08:22:23;10.02;;;6.00;;
23432;SDS011;41331;45.412;10.992;2023-05-15T08:24:51;10.35;;;5.50;;
23432;SDS011;41331;45.412;10.992;2023-05-15T08:27:18;9.25;;;6.38;;
23432;SDS011;41331;45.412;10.992;2023-05-15T08:29:48;8.98;;;6.03;;
23432;SDS011;41331;45.412;10.992;2023-05-15T08:32:16;10.40;;;6.47;;
23432;SDS011;41331;45.412;10.992;2023-05-15T08:34:44;9.23;;;6.47;;
23432;SDS011;41331;45.412;10.992;2023-05-15T08:37:13;10.23;;;6.75;;
23432;SDS011;41331;45.412;10.992;2023-05-15T08:39:40;11.57;;;6.75;;
23432;SDS011;41331;45.412;10.992;2023-05-15T08:42:18;10.40;;;6.82;;
23432;SDS011;41331;45.412;10.992;2023-05-15T08:44:47;11.45;;;6.57;;
23432;SDS011;41331;45.412;10.992;2023-05-15T08:47:17;9.07;;;6.25;;
23432;SDS011;41331;45.412;10.992;2023-05-15T08:52:36;7.47;;;5.00;;
23432;SDS011;41331;45.412;10.992;2023-05-15T08:55:08;8.45;;;5.18;;
23432;SDS011;41331;45.412;10.992;2023-05-15T08:57:39;11.23;;;5.88;;
23432;SDS011;41331;45.412;10.992;2023-05-15T09:00:07;7.47;;;5.65;;
23432;SDS011;41331;45.412;10.992;2023-05-15T09:02:37;8.05;;;5.00;;
23432;SDS011;41331;45.412;10.992;2023-05-15T09:05:05;8.70;;;5.30;;
23432;SDS011;41331;45.412;10.992;2023-05-15T09:07:34;6.80;;;5.28;;
23432;SDS011;41331;45.412;10.992;2023-05-15T09:10:04;8.30;;;5.07;;
23432;SDS011;41331;45.412;10.992;2023-05-15T09:12:33;9.10;;;5.22;;
23432;SDS011;41331;45.412;10.992;2023-05-15T09:15:12;7.10;;;4.47;;
23432;SDS011;41331;45.412;10.992;2023-05-15T09:17:43;6.65;;;4.55;;
23432;SDS011;41331;45.412;10.992;2023-05-15T09:20:31;6.55;;;4.22;;
23432;SDS011;41331;45.412;10.992;2023-05-15T09:22:59;6.82;;;4.68;;
23432;SDS011;41331;45.412;10.992;2023-05-15T09:28:00;6.50;;;4.47;;
23432;SDS011;41331;45.412;10.992;2023-05-15T09:30:28;6.25;;;4.15;;
23432;SDS011;41331;45.412;10.992;2023-05-15T09:33:00;6.32;;;3.95;;
23432;SDS011;41331;45.412;10.992;2023-05-15T09:35:30;7.78;;;4.28;;
23432;SDS011;41331;45.412;10.992;2023-05-15T09:40:30;6.30;;;4.13;;
23432;SDS011;41331;45.412;10.992;2023-05-15T09:42:58;5.70;;;3.83;;
23432;SDS011;41331;45.412;10.992;2023-05-15T09:45:26;7.40;;;4.32;;
23432;SDS011;41331;45.412;10.992;2023-05-15T09:48:03;9.38;;;4.03;;
23432;SDS011;41331;45.412;10.992;2023-05-15T09:50:34;8.20;;;4.60;;
23432;SDS011;41331;45.412;10.992;2023-05-15T09:53:03;7.50;;;4.18;;
23432;SDS011;41331;45.412;10.992;2023-05-15T09:55:32;6.80;;;4.80;;
23432;SDS011;41331;45.412;10.992;2023-05-15T10:00:35;5.68;;;3.67;;
23432;SDS011;41331;45.412;10.992;2023-05-15T10:03:16;5.78;;;3.58;;
23432;SDS011;41331;45.412;10.992;2023-05-15T10:05:45;4.93;;;3.55;;
23432;SDS011;41331;45.412;10.992;2023-05-15T10:08:13;5.00;;;3.60;;
23432;SDS011;41331;45.412;10.992;2023-05-15T10:10:43;6.03;;;3.60;;
23432;SDS011;41331;45.412;10.992;2023-05-15T10:13:13;6.28;;;4.20;;
23432;SDS011;41331;45.412;10.992;2023-05-15T10:15:40;5.95;;;4.20;;
23432;SDS011;41331;45.412;10.992;2023-05-15T10:18:09;6.53;;;3.35;;
23432;SDS011;41331;45.412;10.992;2023-05-15T10:20:38;6.45;;;3.70;;
23432;SDS011;41331;45.412;10.992;2023-05-15T10:23:06;5.38;;;3.28;;
23432;SDS011;41331;45.412;10.992;2023-05-15T10:25:40;8.68;;;3.88;;
23432;SDS011;41331;45.412;10.992;2023-05-15T10:28:16;6.90;;;4.15;;
23432;SDS011;41331;45.412;10.992;2023-05-15T10:30:44;5.35;;;3.90;;
23432;SDS011;41331;45.412;10.992;2023-05-15T10:33:12;7.05;;;4.30;;
23432;SDS011;41331;45.412;10.992;2023-05-15T10:35:41;6.30;;;3.60;;
23432;SDS011;41331;45.412;10.992;2023-05-15T10:38:09;8.05;;;3.97;;
23432;SDS011;41331;45.412;10.992;2023-05-15T10:40:38;7.28;;;4.82;;
23432;SDS011;41331;45.412;10.992;2023-05-15T10:43:07;6.15;;;4.65;;
23432;SDS011;41331;45.412;10.992;2023-05-15T10:45:36;8.07;;;4.97;;
23432;SDS011;41331;45.412;10.992;2023-05-15T10:48:04;10.68;;;5.75;;
23432;SDS011;41331;45.412;10.992;2023-05-15T10:50:35;7.20;;;5.32;;
23432;SDS011;41331;45.412;10.992;2023-05-15T10:53:03;7.22;;;5.03;;
23432;SDS011;41331;45.412;10.992;2023-05-15T10:55:32;8.05;;;5.28;;
23432;SDS011;41331;45.412;10.992;2023-05-15T10:57:59;15.75;;;5.30;;
23432;SDS011;41331;45.412;10.992;2023-05-15T11:00:28;9.57;;;5.20;;
23432;SDS011;41331;45.412;10.992;2023-05-15T11:02:57;7.25;;;4.40;;
23432;SDS011;41331;45.412;10.992;2023-05-15T11:05:27;11.05;;;3.90;;
23432;SDS011;41331;45.412;10.992;2023-05-15T11:10:43;7.75;;;2.85;;
23432;SDS011;41331;45.412;10.992;2023-05-15T11:13:11;6.43;;;3.03;;
23432;SDS011;41331;45.412;10.992;2023-05-15T11:15:42;5.78;;;2.92;;
23432;SDS011;41331;45.412;10.992;2023-05-15T11:18:13;5.03;;;2.50;;
23432;SDS011;41331;45.412;10.992;2023-05-15T11:20:41;6.25;;;3.50;;
23432;SDS011;41331;45.412;10.992;2023-05-15T11:23:28;4.72;;;3.00;;
23432;SDS011;41331;45.412;10.992;2023-05-15T11:26:03;4.82;;;2.95;;
23432;SDS011;41331;45.412;10.992;2023-05-15T11:28:34;6.28;;;3.30;;
23432;SDS011;41331;45.412;10.992;2023-05-15T11:31:07;4.50;;;3.10;;
23432;SDS011;41331;45.412;10.992;2023-05-15T11:33:36;6.05;;;3.95;;
23432;SDS011;41331;45.412;10.992;2023-05-15T11:36:04;5.07;;;3.10;;
23432;SDS011;41331;45.412;10.992;2023-05-15T11:38:36;4.93;;;3.20;;
23432;SDS011;41331;45.412;10.992;2023-05-15T11:41:18;5.85;;;3.35;;
23432;SDS011;41331;45.412;10.992;2023-05-15T11:43:47;5.90;;;2.95;;
23432;SDS011;41331;45.412;10.992;2023-05-15T11:46:19;3.83;;;2.38;;
23432;SDS011;41331;45.412;10.992;2023-05-15T11:48:48;6.43;;;2.85;;
23432;SDS011;41331;45.412;10.992;2023-05-15T11:54:09;4.20;;;2.40;;
23432;SDS011;41331;45.412;10.992;2023-05-15T11:56:41;4.97;;;3.28;;
23432;SDS011;41331;45.412;10.992;2023-05-15T11:59:13;5.35;;;2.30;;
23432;SDS011;41331;45.412;10.992;2023-05-15T12:01:41;5.25;;;2.55;;
23432;SDS011;41331;45.412;10.992;2023-05-15T12:04:10;7.18;;;2.88;;
23432;SDS011;41331;45.412;10.992;2023-05-15T12:06:41;3.33;;;1.80;;
23432;SDS011;41331;45.412;10.992;2023-05-15T12:09:16;4.60;;;2.22;;
23432;SDS011;41331;45.412;10.992;2023-05-15T12:11:50;4.13;;;2.20;;
23432;SDS011;41331;45.412;10.992;2023-05-15T12:14:25;2.97;;;1.63;;
23432;SDS011;41331;45.412;10.992;2023-05-15T12:17:02;3.35;;;1.90;;
23432;SDS011;41331;45.412;10.992;2023-05-15T12:19:33;4.40;;;2.47;;
23432;SDS011;41331;45.412;10.992;2023-05-15T12:22:03;3.67;;;2.33;;
23432;SDS011;41331;45.412;10.992;2023-05-15T12:24:32;4.47;;;2.40;;
23432;SDS011;41331;45.412;10.992;2023-05-15T12:27:06;5.72;;;2.17;;
23432;SDS011;41331;45.412;10.992;2023-05-15T12:29:34;5.38;;;2.60;;
23432;SDS011;41331;45.412;10.992;2023-05-15T12:32:03;4.05;;;2.47;;
23432;SDS011;41331;45.412;10.992;2023-05-15T12:34:31;4.47;;;2.40;;
23432;SDS011;41331;45.412;10.992;2023-05-15T12:36:59;3.58;;;2.10;;
23432;SDS011;41331;45.412;10.992;2023-05-15T12:39:27;4.35;;;2.50;;
23432;SDS011;41331;45.412;10.992;2023-05-15T12:41:56;4.85;;;2.40;;
23432;SDS011;41331;45.412;10.992;2023-05-15T12:44:24;4.18;;;2.30;;
23432;SDS011;41331;45.412;10.992;2023-05-15T12:46:55;5.78;;;2.78;;
23432;SDS011;41331;45.412;10.992;2023-05-15T12:49:23;3.72;;;2.70;;
23432;SDS011;41331;45.412;10.992;2023-05-15T12:51:50;4.97;;;2.25;;
23432;SDS011;41331;45.412;10.992;2023-05-15T12:54:18;3.83;;;2.17;;
23432;SDS011;41331;45.412;10.992;2023-05-15T12:56:47;5.95;;;1.85;;
23432;SDS011;41331;45.412;10.992;2023-05-15T12:59:14;4.82;;;2.33;;
23432;SDS011;41331;45.412;10.992;2023-05-15T13:01:42;3.25;;;1.80;;
23432;SDS011;41331;45.412;10.992;2023-05-15T13:04:10;3.65;;;1.95;;
23432;SDS011;41331;45.412;10.992;2023-05-15T13:06:37;8.70;;;1.90;;
23432;SDS011;41331;45.412;10.992;2023-05-15T13:09:13;2.67;;;1.60;;
23432;SDS011;41331;45.412;10.992;2023-05-15T13:11:43;5.82;;;1.80;;
23432;SDS011;41331;45.412;10.992;2023-05-15T13:14:11;3.50;;;1.98;;
23432;SDS011;41331;45.412;10.992;2023-05-15T13:19:12;4.10;;;1.80;;
23432;SDS011;41331;45.412;10.992;2023-05-15T13:21:40;4.88;;;2.38;;
23432;SDS011;41331;45.412;10.992;2023-05-15T13:24:07;8.90;;;2.72;;
23432;SDS011;41331;45.412;10.992;2023-05-15T13:26:36;3.55;;;1.92;;
23432;SDS011;41331;45.412;10.992;2023-05-15T13:29:04;12.68;;;3.63;;
23432;SDS011;41331;45.412;10.992;2023-05-15T13:31:31;10.15;;;3.28;;
23432;SDS011;41331;45.412;10.992;2023-05-15T13:33:59;3.40;;;2.00;;
23432;SDS011;41331;45.412;10.992;2023-05-15T13:36:26;3.38;;;1.60;;
23432;SDS011;41331;45.412;10.992;2023-05-15T13:38:54;5.00;;;2.10;;
23432;SDS011;41331;45.412;10.992;2023-05-15T13:41:22;5.43;;;2.05;;
23432;SDS011;41331;45.412;10.992;2023-05-15T13:43:52;4.63;;;2.00;;
23432;SDS011;41331;45.412;10.992;2023-05-15T13:46:19;7.05;;;2.55;;
23432;SDS011;41331;45.412;10.992;2023-05-15T13:48:47;8.93;;;3.20;;
23432;SDS011;41331;45.412;10.992;2023-05-15T13:51:14;9.65;;;2.20;;
23432;SDS011;41331;45.412;10.992;2023-05-15T13:53:42;11.75;;;2.67;;
23432;SDS011;41331;45.412;10.992;2023-05-15T13:56:09;5.78;;;2.13;;
23432;SDS011;41331;45.412;10.992;2023-05-15T13:58:38;5.05;;;1.90;;
23432;SDS011;41331;45.412;10.992;2023-05-15T14:01:06;3.97;;;1.70;;
23432;SDS011;41331;45.412;10.992;2023-05-15T14:03:34;2.92;;;1.50;;
23432;SDS011;41331;45.412;10.992;2023-05-15T14:06:01;3.00;;;1.55;;
23432;SDS011;41331;45.412;10.992;2023-05-15T14:08:29;4.10;;;1.90;;
23432;SDS011;41331;45.412;10.992;2023-05-15T14:10:56;3.60;;;1.80;;
23432;SDS011;41331;45.412;10.992;2023-05-15T14:13:24;5.38;;;2.08;;
23432;SDS011;41331;45.412;10.992;2023-05-15T14:15:51;4.95;;;2.05;;
23432;SDS011;41331;45.412;10.992;2023-05-15T14:18:22;5.40;;;1.73;;
23432;SDS011;41331;45.412;10.992;2023-05-15T14:20:51;2.95;;;1.35;;
23432;SDS011;41331;45.412;10.992;2023-05-15T14:23:18;3.22;;;1.80;;
23432;SDS011;41331;45.412;10.992;2023-05-15T14:25:46;3.28;;;1.45;;
23432;SDS011;41331;45.412;10.992;2023-05-15T14:28:13;3.85;;;1.50;;
23432;SDS011;41331;45.412;10.992;2023-05-15T14:30:40;2.90;;;1.40;;
23432;SDS011;41331;45.412;10.992;2023-05-15T14:33:08;3.80;;;1.80;;
23432;SDS011;41331;45.412;10.992;2023-05-15T14:35:35;3.60;;;1.70;;
23432;SDS011;41331;45.412;10.992;2023-05-15T14:38:03;5.32;;;1.58;;
23432;SDS011;41331;45.412;10.992;2023-05-15T14:40:30;2.60;;;1.52;;
23432;SDS011;41331;45.412;10.992;2023-05-15T14:42:58;6.93;;;1.45;;
23432;SDS011;41331;45.412;10.992;2023-05-15T14:45:26;2.78;;;1.60;;
23432;SDS011;41331;45.412;10.992;2023-05-15T14:47:54;4.03;;;1.42;;
23432;SDS011;41331;45.412;10.992;2023-05-15T14:50:21;4.25;;;1.25;;
23432;SDS011;41331;45.412;10.992;2023-05-15T14:52:50;3.25;;;1.40;;
23432;SDS011;41331;45.412;10.992;2023-05-15T14:55:18;2.60;;;1.48;;
23432;SDS011;41331;45.412;10.992;2023-05-15T14:57:49;3.00;;;1.40;;
23432;SDS011;41331;45.412;10.992;2023-05-15T15:00:16;2.78;;;1.30;;
23432;SDS011;41331;45.412;10.992;2023-05-15T15:02:44;4.68;;;1.65;;
23432;SDS011;41331;45.412;10.992;2023-05-15T15:05:12;5.63;;;1.50;;
23432;SDS011;41331;45.412;10.992;2023-05-15T15:10:28;2.47;;;1.38;;